createdAt,value
2022-11-29T00:01:38.746Z,10.90
2022-11-29T00:04:05.302Z,12.65
2022-11-29T00:06:33.072Z,11.95
2022-11-29T00:09:01.846Z,11.57
2022-11-29T00:11:48.806Z,14.13
2022-11-29T00:14:18.050Z,12.50
2022-11-29T00:16:45.055Z,14.45
2022-11-29T00:19:12.856Z,12.93
2022-11-29T00:21:39.291Z,12.30
2022-11-29T00:24:06.035Z,11.88
2022-11-29T00:26:32.502Z,11.50
2022-11-29T00:28:59.363Z,12.07
2022-11-29T00:31:30.310Z,14.30
2022-11-29T00:33:57.729Z,15.80
2022-11-29T00:36:24.448Z,17.13
2022-11-29T00:38:51.126Z,14.23
2022-11-29T00:41:17.739Z,17.73
2022-11-29T00:43:44.165Z,17.50
2022-11-29T00:46:10.918Z,19.25
2022-11-29T00:48:37.468Z,17.30
2022-11-29T00:51:04.879Z,20.17
2022-11-29T00:53:31.754Z,20.50
2022-11-29T00:55:58.253Z,17.55
2022-11-29T00:58:24.834Z,13.40
2022-11-29T01:00:53.248Z,14.82
2022-11-29T01:03:19.975Z,15.43
2022-11-29T01:05:46.569Z,15.30
2022-11-29T01:08:13.396Z,16.30
2022-11-29T01:10:40.002Z,15.75
2022-11-29T01:13:06.826Z,17.60
2022-11-29T01:15:33.340Z,17.10
2022-11-29T01:17:59.782Z,18.27
2022-11-29T01:20:26.976Z,19.20
2022-11-29T01:22:53.771Z,18.77
2022-11-29T01:25:20.257Z,16.95
2022-11-29T01:27:46.870Z,17.50
2022-11-29T01:30:13.433Z,18.00
2022-11-29T01:32:39.833Z,17.95
2022-11-29T01:35:06.932Z,17.63
2022-11-29T01:37:33.420Z,18.73
2022-11-29T01:39:59.933Z,16.92
2022-11-29T01:42:26.499Z,18.52
2022-11-29T01:45:20.034Z,18.88
2022-11-29T01:47:47.700Z,13.80
2022-11-29T01:50:14.520Z,17.85
2022-11-29T01:52:41.399Z,17.48
2022-11-29T01:55:09.656Z,18.80
2022-11-29T01:57:38.896Z,20.03
2022-11-29T02:00:09.872Z,18.73
2022-11-29T02:02:52.351Z,16.50
2022-11-29T02:05:20.012Z,20.33
2022-11-29T02:07:48.833Z,19.10
2022-11-29T02:10:15.675Z,20.05
2022-11-29T02:13:01.197Z,18.02
2022-11-29T02:15:49.474Z,15.50
2022-11-29T02:18:38.676Z,14.80
2022-11-29T02:21:26.556Z,15.23
2022-11-29T02:24:05.037Z,15.77
2022-11-29T02:27:08.794Z,12.02
2022-11-29T02:30:00.320Z,13.13
2022-11-29T02:32:48.249Z,15.00
2022-11-29T02:35:48.931Z,14.95
2022-11-29T02:38:36.273Z,16.75
2022-11-29T02:41:21.599Z,13.77
2022-11-29T02:44:18.389Z,14.68
2022-11-29T02:47:21.909Z,16.02
2022-11-29T02:50:08.210Z,15.77
2022-11-29T02:52:59.076Z,16.63
2022-11-29T02:55:38.793Z,15.50
2022-11-29T02:58:19.374Z,16.83
2022-11-29T03:01:23.391Z,16.15
2022-11-29T03:04:27.102Z,16.73
2022-11-29T03:07:03.895Z,17.75
2022-11-29T03:09:42.729Z,17.98
2022-11-29T03:12:32.203Z,17.08
2022-11-29T03:15:01.602Z,19.50
2022-11-29T03:20:21.237Z,19.58
2022-11-29T03:23:06.872Z,19.33
2022-11-29T03:25:38.498Z,17.90
2022-11-29T03:28:11.294Z,16.50
2022-11-29T03:30:41.014Z,16.50
2022-11-29T03:33:25.010Z,20.40
2022-11-29T03:36:00.748Z,19.10
2022-11-29T03:38:36.551Z,19.20
2022-11-29T03:41:18.424Z,18.45
2022-11-29T03:43:55.194Z,21.30
2022-11-29T03:46:39.556Z,18.88
2022-11-29T03:49:16.853Z,21.13
2022-11-29T03:51:58.715Z,24.52
2022-11-29T03:54:32.847Z,23.20
2022-11-29T03:56:59.677Z,23.33
2022-11-29T03:59:40.382Z,21.58
2022-11-29T04:02:21.904Z,22.88
2022-11-29T04:05:12.663Z,22.50
2022-11-29T04:08:04.789Z,18.25
2022-11-29T04:10:56.044Z,21.33
2022-11-29T04:14:14.731Z,21.15
2022-11-29T04:17:10.017Z,20.15
2022-11-29T04:19:55.337Z,18.90
2022-11-29T04:22:33.212Z,19.02
2022-11-29T04:25:18.700Z,18.85
2022-11-29T04:28:10.113Z,16.05
2022-11-29T04:31:11.864Z,16.40
2022-11-29T04:33:50.099Z,15.88
2022-11-29T04:36:49.027Z,16.13
2022-11-29T04:39:40.200Z,19.52
2022-11-29T04:42:14.908Z,20.90
2022-11-29T04:44:53.415Z,20.83
2022-11-29T04:47:28.814Z,17.63
2022-11-29T04:49:55.386Z,22.75
2022-11-29T04:53:03.513Z,21.77
2022-11-29T04:55:59.306Z,24.00
2022-11-29T04:58:46.235Z,22.98
2022-11-29T05:01:41.366Z,24.13
2022-11-29T05:04:19.487Z,24.02
2022-11-29T05:06:52.050Z,29.27
2022-11-29T05:09:42.323Z,24.70
2022-11-29T05:12:35.146Z,23.48
2022-11-29T05:15:07.675Z,25.83
2022-11-29T05:17:46.787Z,19.55
2022-11-29T05:20:24.313Z,22.55
2022-11-29T05:23:33.861Z,19.27
2022-11-29T05:26:15.897Z,24.70
2022-11-29T05:29:06.986Z,21.55
2022-11-29T05:31:39.647Z,26.15
2022-11-29T05:34:34.545Z,23.67
2022-11-29T05:37:01.508Z,23.15
2022-11-29T05:39:42.054Z,23.13
2022-11-29T05:42:32.888Z,28.55
2022-11-29T05:45:14.691Z,27.15
2022-11-29T05:47:57.269Z,25.35
2022-11-29T05:50:37.592Z,31.13
2022-11-29T05:53:25.927Z,21.60
2022-11-29T05:56:08.788Z,24.48
2022-11-29T05:58:50.342Z,21.08
2022-11-29T06:01:45.329Z,23.35
2022-11-29T06:04:14.776Z,21.73
2022-11-29T06:06:50.389Z,23.33
2022-11-29T06:09:17.388Z,25.85
2022-11-29T06:11:50.646Z,22.58
2022-11-29T06:14:35.974Z,21.08
2022-11-29T06:17:15.304Z,21.77
2022-11-29T06:22:48.868Z,24.85
2022-11-29T06:26:04.076Z,18.90
2022-11-29T06:28:49.147Z,21.08
2022-11-29T06:31:27.419Z,22.27
2022-11-29T06:33:59.807Z,18.60
2022-11-29T06:36:36.260Z,24.38
2022-11-29T06:39:03.129Z,23.50
2022-11-29T06:41:29.867Z,25.88
2022-11-29T06:43:56.598Z,21.40
2022-11-29T06:46:25.952Z,19.08
2022-11-29T06:52:11.420Z,15.65
2022-11-29T06:54:50.068Z,14.25
2022-11-29T06:57:28.630Z,14.40
2022-11-29T07:00:15.911Z,14.98
2022-11-29T07:03:01.345Z,13.32
2022-11-29T07:05:31.220Z,12.73
2022-11-29T07:08:02.382Z,11.50
2022-11-29T07:10:31.909Z,14.05
2022-11-29T07:12:58.672Z,16.75
2022-11-29T07:15:25.574Z,18.30
2022-11-29T07:18:01.114Z,19.23
2022-11-29T07:20:54.240Z,18.40
2022-11-29T07:23:45.362Z,18.63
2022-11-29T07:26:30.057Z,18.55
2022-11-29T07:29:06.758Z,19.70
2022-11-29T07:31:42.266Z,19.08
2022-11-29T07:34:17.554Z,19.83
2022-11-29T07:37:14.673Z,17.13
2022-11-29T07:40:05.767Z,17.17
2022-11-29T07:42:52.257Z,18.17
2022-11-29T07:45:31.809Z,18.80
2022-11-29T07:47:58.997Z,19.27
2022-11-29T07:50:26.937Z,17.65
2022-11-29T07:52:54.178Z,18.67
2022-11-29T07:55:22.151Z,21.60
2022-11-29T07:57:49.300Z,22.75
2022-11-29T08:00:17.229Z,23.25
2022-11-29T08:02:44.128Z,28.30
2022-11-29T08:05:10.880Z,25.70
2022-11-29T08:07:38.597Z,26.90
2022-11-29T08:10:07.552Z,26.00
2022-11-29T08:12:34.092Z,26.65
2022-11-29T08:15:01.510Z,23.02
2022-11-29T08:17:27.997Z,23.40
2022-11-29T08:19:54.495Z,25.08
2022-11-29T08:22:20.979Z,27.02
2022-11-29T08:24:47.765Z,27.58
2022-11-29T08:27:14.459Z,24.25
2022-11-29T08:29:40.968Z,24.88
2022-11-29T08:32:08.844Z,22.08
2022-11-29T08:34:35.288Z,23.10
2022-11-29T08:37:01.679Z,24.70
2022-11-29T08:39:28.087Z,22.75
2022-11-29T08:41:54.470Z,21.98
2022-11-29T08:44:20.930Z,22.25
2022-11-29T08:47:06.037Z,22.85
2022-11-29T08:49:32.865Z,22.70
2022-11-29T08:52:18.099Z,23.98
2022-11-29T08:54:44.940Z,21.77
2022-11-29T08:57:38.577Z,23.70
2022-11-29T08:59:58.004Z,23.13
2022-11-29T09:02:24.489Z,23.65
2022-11-29T09:04:50.959Z,24.30
2022-11-29T09:07:17.909Z,24.00
2022-11-29T09:09:44.397Z,24.90
2022-11-29T09:12:10.801Z,22.20
2022-11-29T09:14:37.237Z,22.00
2022-11-29T09:17:03.641Z,18.95
2022-11-29T09:19:30.220Z,20.77
2022-11-29T09:21:56.839Z,17.20
2022-11-29T09:24:23.359Z,18.92
2022-11-29T09:26:49.866Z,21.08
2022-11-29T09:29:17.419Z,22.30
2022-11-29T09:31:45.192Z,22.45
2022-11-29T09:34:15.940Z,24.52
2022-11-29T09:36:44.026Z,22.10
2022-11-29T09:39:12.346Z,23.55
2022-11-29T09:41:44.286Z,24.20
2022-11-29T09:44:27.312Z,25.52
2022-11-29T09:47:08.362Z,25.58
2022-11-29T09:49:55.566Z,27.52
2022-11-29T09:52:55.225Z,27.05
2022-11-29T09:55:43.109Z,26.58
2022-11-29T09:58:13.458Z,24.75
2022-11-29T10:00:49.711Z,26.55
2022-11-29T10:03:26.615Z,26.15
2022-11-29T10:06:01.120Z,25.70
2022-11-29T10:08:34.108Z,24.95
2022-11-29T10:11:21.201Z,25.95
2022-11-29T10:13:52.315Z,22.30
2022-11-29T10:16:40.995Z,20.95
2022-11-29T10:19:07.821Z,22.85
2022-11-29T10:21:36.801Z,21.65
2022-11-29T10:24:08.982Z,22.15
2022-11-29T10:26:35.714Z,21.80
2022-11-29T10:29:02.312Z,23.23
2022-11-29T10:31:32.543Z,23.10
2022-11-29T10:34:01.044Z,21.90
2022-11-29T10:36:44.503Z,23.02
2022-11-29T10:39:22.504Z,20.92
2022-11-29T10:41:55.760Z,20.77
2022-11-29T10:44:22.631Z,19.50
2022-11-29T10:46:49.105Z,20.13
2022-11-29T10:49:18.745Z,28.95
2022-11-29T10:51:48.354Z,24.02
2022-11-29T10:54:28.915Z,21.70
2022-11-29T10:56:57.201Z,20.10
2022-11-29T10:59:25.810Z,18.70
2022-11-29T11:01:52.409Z,20.70
2022-11-29T11:04:28.719Z,20.67
2022-11-29T11:07:00.139Z,23.95
2022-11-29T11:09:36.256Z,23.70
2022-11-29T11:12:08.520Z,22.83
2022-11-29T11:14:37.575Z,22.10
2022-11-29T11:17:25.904Z,21.30
2022-11-29T11:19:58.578Z,23.77
2022-11-29T11:22:25.779Z,23.60
2022-11-29T11:24:58.388Z,21.48
2022-11-29T11:27:30.073Z,22.98
2022-11-29T11:29:56.698Z,24.27
2022-11-29T11:32:23.218Z,23.85
2022-11-29T11:34:57.876Z,23.75
2022-11-29T11:37:29.869Z,22.27
2022-11-29T11:39:59.662Z,23.70
2022-11-29T11:42:36.983Z,24.27
2022-11-29T11:45:11.880Z,19.50
2022-11-29T11:47:47.282Z,26.30
2022-11-29T11:50:16.612Z,14.80
2022-11-29T11:55:38.343Z,13.70
2022-11-29T11:58:09.740Z,14.68
2022-11-29T12:01:05.498Z,17.08
2022-11-29T12:03:57.587Z,19.58
2022-11-29T12:06:27.707Z,20.95
2022-11-29T12:09:03.845Z,20.45
2022-11-29T12:11:55.306Z,20.25
2022-11-29T12:14:28.570Z,20.27
2022-11-29T12:17:03.525Z,19.23
2022-11-29T12:19:36.048Z,21.73
2022-11-29T12:22:07.209Z,17.73
2022-11-29T12:24:51.179Z,18.45
2022-11-29T12:27:17.833Z,21.05
2022-11-29T12:29:44.298Z,18.15
2022-11-29T12:32:24.529Z,19.58
2022-11-29T12:35:19.038Z,18.77
2022-11-29T12:38:08.797Z,21.48
2022-11-29T12:40:51.099Z,19.27
2022-11-29T12:43:35.535Z,23.00
2022-11-29T12:46:12.774Z,23.02
2022-11-29T12:49:05.900Z,18.45
2022-11-29T12:51:41.849Z,22.67
2022-11-29T12:54:26.538Z,22.92
2022-11-29T12:57:15.082Z,24.00
2022-11-29T13:00:11.714Z,23.27
2022-11-29T13:02:45.341Z,26.83
2022-11-29T13:05:33.855Z,25.02
2022-11-29T13:08:11.043Z,23.40
2022-11-29T13:10:52.391Z,21.50
2022-11-29T13:13:24.639Z,22.80
2022-11-29T13:15:54.112Z,23.08
2022-11-29T13:18:57.318Z,26.80
2022-11-29T13:21:39.383Z,26.30
2022-11-29T13:24:11.812Z,24.73
2022-11-29T13:26:39.387Z,29.15
2022-11-29T13:29:06.750Z,30.58
2022-11-29T13:31:33.480Z,30.83
2022-11-29T13:34:10.178Z,31.83
2022-11-29T13:36:42.705Z,29.13
2022-11-29T13:39:15.312Z,30.92
2022-11-29T13:41:49.154Z,34.72
2022-11-29T13:44:18.210Z,29.65
2022-11-29T13:47:03.481Z,29.02
2022-11-29T13:49:52.746Z,24.73
2022-11-29T13:55:05.951Z,27.33
2022-11-29T13:58:16.369Z,25.95
2022-11-29T14:00:43.789Z,23.88
2022-11-29T14:03:28.597Z,27.33
2022-11-29T14:06:08.497Z,28.90
2022-11-29T14:09:17.897Z,25.73
2022-11-29T14:11:50.826Z,27.48
2022-11-29T14:14:17.200Z,28.30
2022-11-29T14:16:43.499Z,30.83
2022-11-29T14:19:10.034Z,30.27
2022-11-29T14:22:04.561Z,28.98
2022-11-29T14:24:37.001Z,30.08
2022-11-29T14:27:06.359Z,31.15
2022-11-29T14:32:28.503Z,33.50
2022-11-29T14:34:59.352Z,34.67
2022-11-29T14:37:33.818Z,33.30
2022-11-29T14:40:02.417Z,31.35
2022-11-29T14:42:29.185Z,32.58
2022-11-29T14:44:58.391Z,31.48
2022-11-29T14:47:38.731Z,34.20
2022-11-29T14:50:08.852Z,34.35
2022-11-29T14:52:37.996Z,33.75
2022-11-29T14:55:27.444Z,33.42
2022-11-29T14:57:55.246Z,33.58
2022-11-29T15:00:24.395Z,33.47
2022-11-29T15:02:55.223Z,34.17
2022-11-29T15:05:31.954Z,34.30
2022-11-29T15:08:15.055Z,35.92
2022-11-29T15:10:44.619Z,33.58
2022-11-29T15:13:14.110Z,37.28
2022-11-29T15:16:00.912Z,34.70
2022-11-29T15:18:59.407Z,37.47
2022-11-29T15:21:38.348Z,36.72
2022-11-29T15:24:13.892Z,39.85
2022-11-29T15:26:55.459Z,35.20
2022-11-29T15:29:22.066Z,38.40
2022-11-29T15:32:00.896Z,34.97
2022-11-29T15:34:45.531Z,39.50
2022-11-29T15:37:39.455Z,33.35
2022-11-29T15:40:17.724Z,33.42
2022-11-29T15:42:47.070Z,29.35
2022-11-29T15:47:49.242Z,28.95
2022-11-29T15:50:32.571Z,31.38
2022-11-29T15:53:02.873Z,27.58
2022-11-29T15:55:29.595Z,26.38
2022-11-29T15:57:58.151Z,30.55
2022-11-29T16:00:26.514Z,30.60
2022-11-29T16:03:19.966Z,26.45
2022-11-29T16:05:49.618Z,26.73
2022-11-29T16:08:19.302Z,27.10
2022-11-29T16:10:49.439Z,27.85
2022-11-29T16:13:25.093Z,28.15
2022-11-29T16:16:12.698Z,28.80
2022-11-29T16:18:40.944Z,23.33
2022-11-29T16:21:22.173Z,23.80
2022-11-29T16:23:48.685Z,18.48
2022-11-29T16:26:22.422Z,20.42
2022-11-29T16:28:51.816Z,16.15
2022-11-29T16:33:47.489Z,17.50
2022-11-29T16:36:19.372Z,17.85
2022-11-29T16:38:51.383Z,17.38
2022-11-29T16:41:22.268Z,17.00
2022-11-29T16:43:55.317Z,16.13
2022-11-29T16:46:21.731Z,17.60
2022-11-29T16:48:49.188Z,16.83
2022-11-29T16:51:23.432Z,18.10
2022-11-29T16:53:53.685Z,15.32
2022-11-29T16:56:25.221Z,14.10
2022-11-29T16:59:20.971Z,14.68
2022-11-29T17:01:48.843Z,16.00
2022-11-29T17:04:23.413Z,14.20
2022-11-29T17:06:51.931Z,16.90
2022-11-29T17:09:22.291Z,16.33
2022-11-29T17:11:48.905Z,15.30
2022-11-29T17:14:15.349Z,14.65
2022-11-29T17:16:41.958Z,13.77
2022-11-29T17:19:11.640Z,13.05
2022-11-29T17:21:38.150Z,14.68
2022-11-29T17:24:05.111Z,14.70
2022-11-29T17:26:31.522Z,14.32
2022-11-29T17:28:57.952Z,14.43
2022-11-29T17:31:24.449Z,15.63
2022-11-29T17:33:51.210Z,14.35
2022-11-29T17:36:19.633Z,15.77
2022-11-29T17:38:46.544Z,12.83
2022-11-29T17:41:20.780Z,15.73
2022-11-29T17:43:47.629Z,14.48
2022-11-29T17:46:16.523Z,14.05
2022-11-29T17:48:46.065Z,13.02
2022-11-29T17:51:43.636Z,14.60
2022-11-29T17:54:04.461Z,15.60
2022-11-29T17:56:31.317Z,14.80
2022-11-29T17:59:00.123Z,16.08
2022-11-29T18:01:28.765Z,17.27
2022-11-29T18:03:58.197Z,12.20
2022-11-29T18:08:54.767Z,14.35
2022-11-29T18:11:40.332Z,14.70
2022-11-29T18:14:13.109Z,15.43
2022-11-29T18:16:39.642Z,16.13
2022-11-29T18:19:08.863Z,16.77
2022-11-29T18:21:35.638Z,17.33
2022-11-29T18:24:03.687Z,16.95
2022-11-29T18:26:30.913Z,17.98
2022-11-29T18:28:58.194Z,19.40
2022-11-29T18:31:28.211Z,18.45
2022-11-29T18:33:57.326Z,18.15
2022-11-29T18:36:26.311Z,16.88
2022-11-29T18:39:04.355Z,17.10
2022-11-29T18:41:31.204Z,17.50
2022-11-29T18:44:05.421Z,17.98
2022-11-29T18:46:32.783Z,18.25
2022-11-29T18:49:00.853Z,18.95
2022-11-29T18:51:28.573Z,19.88
2022-11-29T18:53:55.218Z,18.45
2022-11-29T18:56:23.674Z,19.92
2022-11-29T18:58:58.350Z,18.67
2022-11-29T19:01:27.186Z,17.73
2022-11-29T19:03:55.064Z,18.00
2022-11-29T19:06:23.812Z,20.13
2022-11-29T19:08:51.742Z,22.02
2022-11-29T19:11:21.289Z,23.25
2022-11-29T19:13:51.812Z,21.30
2022-11-29T19:16:19.112Z,21.92
2022-11-29T19:18:45.935Z,22.02
2022-11-29T19:21:14.277Z,18.92
2022-11-29T19:23:41.936Z,20.75
2022-11-29T19:26:13.471Z,19.45
2022-11-29T19:28:41.854Z,18.80
2022-11-29T19:31:08.964Z,20.65
2022-11-29T19:33:36.278Z,19.88
2022-11-29T19:36:32.379Z,21.25
2022-11-29T19:39:02.059Z,22.17
2022-11-29T19:41:33.340Z,23.35
2022-11-29T19:44:02.093Z,24.40
2022-11-29T19:46:34.495Z,22.88
2022-11-29T19:49:02.131Z,23.95
2022-11-29T19:51:29.351Z,24.05
2022-11-29T19:53:57.757Z,23.02
2022-11-29T19:56:24.499Z,21.13
2022-11-29T19:58:51.250Z,24.08
2022-11-29T20:01:19.767Z,23.75
2022-11-29T20:03:46.269Z,22.88
2022-11-29T20:06:13.748Z,25.40
2022-11-29T20:08:40.793Z,24.65
2022-11-29T20:11:09.605Z,24.92
2022-11-29T20:13:37.329Z,26.33
2022-11-29T20:16:24.074Z,24.05
2022-11-29T20:18:51.545Z,24.40
2022-11-29T20:21:25.638Z,24.30
2022-11-29T20:23:57.225Z,23.60
2022-11-29T20:26:23.806Z,23.95
2022-11-29T20:28:50.421Z,22.65
2022-11-29T20:31:21.189Z,23.35
2022-11-29T20:33:48.011Z,23.40
2022-11-29T20:36:32.979Z,22.15
2022-11-29T20:39:39.075Z,23.15
2022-11-29T20:42:40.027Z,21.90
2022-11-29T20:45:09.319Z,23.63
2022-11-29T20:50:24.071Z,22.23
2022-11-29T20:55:32.306Z,23.52
2022-11-29T20:57:58.776Z,26.48
2022-11-29T21:00:25.550Z,27.95
2022-11-29T21:02:51.986Z,28.50
2022-11-29T21:05:18.685Z,26.05
2022-11-29T21:07:45.767Z,24.05
2022-11-29T21:10:14.706Z,25.27
2022-11-29T21:12:42.681Z,25.80
2022-11-29T21:15:10.867Z,24.65
2022-11-29T21:17:37.486Z,25.00
2022-11-29T21:20:04.422Z,23.40
2022-11-29T21:22:47.454Z,24.92
2022-11-29T21:25:27.401Z,24.52
2022-11-29T21:27:54.973Z,20.27
2022-11-29T21:30:23.536Z,19.15
2022-11-29T21:32:50.783Z,22.50
2022-11-29T21:35:17.446Z,20.10
2022-11-29T21:37:44.282Z,22.52
2022-11-29T21:40:12.507Z,20.60
2022-11-29T21:42:39.027Z,19.50
2022-11-29T21:45:09.300Z,18.42
2022-11-29T21:47:42.961Z,21.55
2022-11-29T21:50:09.855Z,22.00
2022-11-29T21:52:36.472Z,20.52
2022-11-29T21:55:03.470Z,19.33
2022-11-29T21:57:29.928Z,17.38
2022-11-29T21:59:56.358Z,18.55
2022-11-29T22:02:22.948Z,18.15
2022-11-29T22:04:49.553Z,17.65
2022-11-29T22:07:16.202Z,20.58
2022-11-29T22:09:42.652Z,20.70
2022-11-29T22:12:26.230Z,21.40
2022-11-29T22:14:55.509Z,20.30
2022-11-29T22:17:21.919Z,19.75
2022-11-29T22:19:48.302Z,22.85
2022-11-29T22:22:14.777Z,24.35
2022-11-29T22:24:41.327Z,23.63
2022-11-29T22:27:07.749Z,25.60
2022-11-29T22:29:34.159Z,22.52
2022-11-29T22:32:01.087Z,22.13
2022-11-29T22:34:27.771Z,23.35
2022-11-29T22:36:54.382Z,22.08
2022-11-29T22:39:22.442Z,22.70
2022-11-29T22:41:53.872Z,23.90
2022-11-29T22:44:21.425Z,24.55
2022-11-29T22:46:47.944Z,22.85
2022-11-29T22:49:14.516Z,21.10
2022-11-29T22:51:40.975Z,23.65
2022-11-29T22:54:09.331Z,24.02
2022-11-29T22:56:40.417Z,22.98
2022-11-29T22:59:06.841Z,23.23
2022-11-29T23:01:34.777Z,23.20
2022-11-29T23:04:03.974Z,22.75
2022-11-29T23:06:33.200Z,20.17
2022-11-29T23:09:07.327Z,22.30
2022-11-29T23:11:33.810Z,24.83
2022-11-29T23:14:00.252Z,23.40
2022-11-29T23:16:28.665Z,21.25
2022-11-29T23:18:58.036Z,24.50
2022-11-29T23:23:56.289Z,22.10
2022-11-29T23:26:39.475Z,24.95
2022-11-29T23:29:07.862Z,24.90
2022-11-29T23:31:34.493Z,24.63
2022-11-29T23:34:02.129Z,22.13
2022-11-29T23:36:28.557Z,22.95
2022-11-29T23:38:55.022Z,25.90
2022-11-29T23:41:21.483Z,22.23
2022-11-29T23:43:47.879Z,24.85
2022-11-29T23:46:17.001Z,22.70
2022-11-29T23:51:10.923Z,24.67
2022-11-29T23:53:37.466Z,24.08
2022-11-29T23:56:10.208Z,23.85
2022-11-29T23:58:36.813Z,24.15
